Čakovec Pribislavec Airport

LDVC · Međimurska, Croatia

METAR history LDVC · Čakovec Pribislavec Airport

Below you see METARs of the last few days. Select a year to browse through older METARs, from the year 2007 onwards.

July 15, 2024

Time Code Weather Temp. Visibility Ceiling Wind METAR/SPECI
20:15
V
32 °C 10 km+ - 360° 360° 0 kt METAR LHSM 151815Z AUTO 00000KT CAVOK 32/21 Q1011
19:45
V
32 °C 10 km+ - 360° 360° 0 kt METAR LHSM 151745Z AUTO 00000KT CAVOK 32/22 Q1011
19:15
V
32 °C 10 km+ - Var Var 2 kt METAR LHSM 151715Z AUTO VRB02KT CAVOK 32/22 Q1011
18:45
V
33 °C 10 km+ - 210° 210° 3 kt METAR LHSM 151645Z AUTO 21003KT 190V260 CAVOK 33/21 Q1011
18:15
V
33 °C 10 km+ - 220° 220° 3 kt METAR LHSM 151615Z AUTO 22003KT 170V270 CAVOK 33/20 Q1011
17:45
V
33 °C 10 km+ - Var Var 3 kt METAR LHSM 151545Z AUTO VRB03KT CAVOK 33/20 Q1012
17:15
V
33 °C 10 km+ - Var Var 3 kt METAR LHSM 151515Z AUTO VRB03KT CAVOK 33/19 Q1012
16:45
V
33 °C 10 km+ - 190° 190° 4 kt METAR LHSM 151445Z AUTO 19004KT 130V260 CAVOK 33/19 Q1012
16:15
V
33 °C 10 km+ - 190° 190° 4 kt METAR LHSM 151415Z AUTO 19004KT 140V250 CAVOK 33/19 Q1012
15:45
V
33 °C 10 km+ - 210° 210° 4 kt METAR LHSM 151345Z AUTO 21004KT 140V300 CAVOK 33/20 Q1013 NOSIG
15:15
V
33 °C 10 km+ - Var Var 2 kt METAR LHSM 151315Z AUTO VRB02KT CAVOK 33/20 Q1013 NOSIG
14:45
V
33 °C 10 km+ - Var Var 3 kt METAR LHSM 151245Z AUTO VRB03KT CAVOK 33/19 Q1013 NOSIG
14:15
V
33 °C 10 km+ - Var Var 3 kt METAR LHSM 151215Z AUTO VRB03KT CAVOK 33/20 Q1013 NOSIG
13:45
V
32 °C 10 km+ - 240° 240° 4 kt METAR LHSM 151145Z AUTO 24004KT 200V320 CAVOK 32/20 Q1013 NOSIG
13:15
I
32 °C 2.1 km - Var Var 3 kt METAR LHSM 151115Z AUTO VRB03KT 2100 HZ NCD 32/19 Q1014 NOSIG
12:45
V
32 °C 10 km+ - Var Var 4 kt METAR LHSM 151045Z AUTO VRB04KT CAVOK 32/19 Q1014 NOSIG
12:15
V
32 °C 10 km+ - Var Var 3 kt METAR LHSM 151015Z AUTO VRB03KT CAVOK 32/20 Q1014 NOSIG
11:45
V
31 °C 10 km+ - Var Var 2 kt METAR LHSM 150945Z AUTO VRB02KT CAVOK 31/19 Q1014 NOSIG
11:15
V
31 °C 10 km+ - Var Var 2 kt METAR LHSM 150915Z AUTO VRB02KT CAVOK 31/20 Q1014 NOSIG
10:45
V
30 °C 10 km+ - Var Var 2 kt METAR LHSM 150845Z AUTO VRB02KT CAVOK 30/20 Q1014 NOSIG
10:15
V
30 °C 10 km+ - Var Var 3 kt METAR LHSM 150815Z AUTO VRB03KT CAVOK 30/20 Q1014 NOSIG
09:45
V
29 °C 10 km+ - 350° 350° 5 kt METAR LHSM 150745Z AUTO 35005KT 270V070 CAVOK 29/19 Q1014 NOSIG
09:15
V
27 °C 10 km+ - 310° 310° 6 kt METAR LHSM 150715Z AUTO 31006KT 290V350 CAVOK 27/20 Q1014 NOSIG
08:45
V
26 °C 10 km+ - 320° 320° 7 kt METAR LHSM 150645Z AUTO 32007KT CAVOK 26/20 Q1014 NOSIG
08:15
V
25 °C 10 km+ - 310° 310° 7 kt METAR LHSM 150615Z AUTO 31007KT CAVOK 25/20 Q1014 NOSIG
07:45
V
25 °C 10 km+ - 350° 350° 5 kt METAR LHSM 150545Z AUTO 35005KT 270V040 CAVOK 25/19 Q1014 NOSIG
07:15
V
23 °C 10 km+ - 320° 320° 4 kt METAR LHSM 150515Z AUTO 32004KT 270V010 CAVOK 23/19 Q1014 NOSIG
06:45
V
22 °C 10 km+ - 320° 320° 5 kt METAR LHSM 150445Z AUTO 32005KT 290V360 CAVOK 22/18 Q1014
06:15
V
21 °C 10 km+ - 330° 330° 4 kt METAR LHSM 150415Z AUTO 33004KT 300V010 CAVOK 21/18 Q1014
05:45
V
22 °C 10 km+ - 320° 320° 5 kt METAR LHSM 150345Z AUTO 32005KT CAVOK 22/18 Q1013
05:15
V
22 °C 10 km+ - 330° 330° 7 kt METAR LHSM 150315Z AUTO 33007KT 310V010 CAVOK 22/18 Q1013
04:45
V
21 °C 10 km+ - 330° 330° 6 kt METAR LHSM 150245Z AUTO 33006KT CAVOK 21/18 Q1013
04:15
V
22 °C 10 km+ - 330° 330° 5 kt METAR LHSM 150215Z AUTO 33005KT CAVOK 22/18 Q1013
03:45
V
22 °C 10 km+ - 330° 330° 7 kt METAR LHSM 150145Z AUTO 33007KT 300V010 CAVOK 22/19 Q1013
03:15
V
22 °C 10 km+ - 310° 310° 6 kt METAR LHSM 150115Z AUTO 31006KT 280V340 CAVOK 22/19 Q1013
02:45
V
22 °C 10 km+ - 320° 320° 8 kt METAR LHSM 150045Z AUTO 32008KT CAVOK 22/19 Q1013
02:15
V
22 °C 10 km+ - 310° 310° 6 kt METAR LHSM 150015Z AUTO 31006KT CAVOK 22/19 Q1013
01:45
V
22 °C 10 km+ - 310° 310° 4 kt METAR LHSM 142345Z AUTO 31004KT CAVOK 22/19 Q1013
01:15
V
24 °C 10 km+ - 360° 360° 0 kt METAR LHSM 142315Z AUTO 00000KT CAVOK 24/19 Q1013
00:45
V
24 °C 10 km+ - 350° 350° 4 kt METAR LHSM 142245Z AUTO 35004KT CAVOK 24/19 Q1013
00:15
V
25 °C 10 km+ - 330° 330° 8 kt METAR LHSM 142215Z AUTO 33008KT CAVOK 25/19 Q1013

July 14, 2024

Time Code Weather Temp. Visibility Ceiling Wind METAR/SPECI
23:45
V
25 °C 10 km+ - 320° 320° 5 kt METAR LHSM 142145Z AUTO 32005KT CAVOK 25/20 Q1013
23:15
V
25 °C 10 km+ - 320° 320° 6 kt METAR LHSM 142115Z AUTO 32006KT CAVOK 25/20 Q1012
22:45
V
24 °C 10 km+ - 330° 330° 4 kt METAR LHSM 142045Z AUTO 33004KT 300V360 CAVOK 24/20 Q1012
22:15
V
24 °C 10 km+ - 320° 320° 5 kt METAR LHSM 142015Z AUTO 32005KT 290V350 CAVOK 24/20 Q1012 RERA
21:45
V
25 °C 10 km+ - 340° 340° 4 kt METAR LHSM 141945Z AUTO 34004KT 300V020 CAVOK 25/20 Q1012 RESHRA
21:15
M
26 °C 5 km - 340° 340° 4 kt METAR LHSM 141915Z AUTO 34004KT 5000 NCD 26/20 Q1012
20:45
V
27 °C 10 km+ - 340° 340° 4 kt METAR LHSM 141845Z AUTO 34004KT 290V020 CAVOK 27/20 Q1012
20:15
V
28 °C 10 km+ - Var Var 2 kt METAR LHSM 141815Z AUTO VRB02KT CAVOK 28/20 Q1011
19:45
V
30 °C 10 km+ - 010° 010° 4 kt METAR LHSM 141745Z AUTO 01004KT CAVOK 30/20 Q1011
19:15
V
31 °C 10 km+ - 360° 360° 4 kt METAR LHSM 141715Z AUTO 36004KT 330V030 CAVOK 31/19 Q1011
18:45
V
31 °C 10 km+ - 020° 020° 5 kt METAR LHSM 141645Z AUTO 02005KT 340V070 CAVOK 31/20 Q1011
18:15
V
32 °C 10 km+ - 020° 020° 5 kt METAR LHSM 141615Z AUTO 02005KT 300V090 CAVOK 32/19 Q1011
17:45
V
32 °C 10 km+ - 360° 360° 5 kt METAR LHSM 141545Z AUTO 36005KT 290V060 CAVOK 32/19 Q1011
17:15
V
32 °C 10 km+ - 330° 330° 4 kt METAR LHSM 141515Z AUTO 33004KT 290V100 CAVOK 32/18 Q1011
16:45
V
32 °C 10 km+ - 310° 310° 5 kt METAR LHSM 141445Z AUTO 31005KT 270V020 CAVOK 32/20 Q1011
16:15
V
32 °C 10 km+ - 320° 320° 4 kt METAR LHSM 141415Z AUTO 32004KT 230V020 CAVOK 32/20 Q1011
15:45
V
31 °C 10 km+ - Var Var 4 kt METAR LHSM 141345Z AUTO VRB04KT CAVOK 31/19 Q1011 NOSIG
15:15
V
31 °C 10 km+ - 360° 360° 5 kt METAR LHSM 141315Z AUTO 36005KT 290V080 CAVOK 31/20 Q1011 NOSIG
14:45
V
31 °C 10 km+ - 330° 330° 8 kt METAR LHSM 141245Z AUTO 33008KT 290V020 CAVOK 31/21 Q1012 NOSIG
14:15
V
30 °C 10 km+ - 340° 340° 7 kt METAR LHSM 141215Z AUTO 34007KT 280V030 CAVOK 30/20 Q1012 NOSIG
13:45
V
30 °C 10 km+ - 320° 320° 8 kt METAR LHSM 141145Z AUTO 32008KT 270V010 CAVOK 30/21 Q1012 NOSIG
13:15
V
30 °C 10 km+ - 340° 340° 7 kt METAR LHSM 141115Z AUTO 34007KT 280V060 CAVOK 30/20 Q1012 NOSIG
12:45
V
29 °C 10 km+ - 340° 340° 9 kt METAR LHSM 141045Z AUTO 34009KT 300V020 CAVOK 29/20 Q1012 NOSIG
12:15
V
28 °C 10 km+ - 330° 330° 10 kt METAR LHSM 141015Z AUTO 33010KT 300V020 CAVOK 28/20 Q1012 NOSIG
11:45
V
28 °C 10 km+ - 330° 330° 10 kt METAR LHSM 140945Z AUTO 33010KT 270V010 CAVOK 28/20 Q1012 NOSIG
11:15
V
28 °C 10 km+ - 340° 340° 10 kt METAR LHSM 140915Z AUTO 34010KT 300V020 CAVOK 28/20 Q1012 NOSIG
10:45
V
26 °C 10 km+ - 350° 350° 7 kt METAR LHSM 140845Z AUTO 35007KT 320V030 CAVOK 26/19 Q1012 NOSIG
10:15
V
26 °C 10 km+ - 360° 360° 7 kt METAR LHSM 140815Z AUTO 36007KT 320V050 9999 FEW042 26/19 Q1012 BECMG FM0845 CAVOK
09:45
V
26 °C 10 km+ - 010° 010° 8 kt METAR LHSM 140745Z AUTO 01008KT 340V070 9999 //////TCU 26/19 Q1012 TEMPO VRB16G28KT 5000 SHRA TSRA SCT060CB
09:15
V
25 °C 10 km+ - 020° 020° 8 kt METAR LHSM 140715Z AUTO 02008KT 340V060 CAVOK 25/19 Q1012 TEMPO VRB16G28KT 5000 SHRA TSRA SCT060CB
08:45
V
24 °C 10 km+ - 010° 010° 9 kt METAR LHSM 140645Z AUTO 01009KT 330V050 CAVOK 24/19 Q1012 NOSIG
08:15
V
24 °C 10 km+ - 350° 350° 11 kt METAR LHSM 140615Z AUTO 35011KT 320V020 CAVOK 24/19 Q1012 NOSIG
07:45
V
23 °C 10 km+ - 340° 340° 12 kt METAR LHSM 140545Z AUTO 34012KT 310V010 CAVOK 23/18 Q1012 NOSIG
07:15
V
23 °C 10 km+ - 350° 350° 9 kt METAR LHSM 140515Z AUTO 35009KT CAVOK 23/18 Q1011 NOSIG
06:45
V
21 °C 10 km+ - 330° 330° 5 kt METAR LHSM 140445Z AUTO 33005KT 300V010 CAVOK 21/19 Q1011
06:15
V
21 °C 10 km+ - 320° 320° 7 kt METAR LHSM 140415Z AUTO 32007KT CAVOK 21/19 Q1011
05:45
V
21 °C 10 km+ - 320° 320° 8 kt METAR LHSM 140345Z AUTO 32008KT CAVOK 21/19 Q1011
05:15
V
21 °C 10 km+ - 330° 330° 6 kt METAR LHSM 140315Z AUTO 33006KT CAVOK 21/19 Q1011
04:45
V
21 °C 10 km+ - 320° 320° 8 kt METAR LHSM 140245Z AUTO 32008KT 290V360 CAVOK 21/19 Q1011
04:15
V
21 °C 10 km+ - 320° 320° 7 kt METAR LHSM 140215Z AUTO 32007KT CAVOK 21/19 Q1011
03:45
V
20 °C 10 km+ - 310° 310° 7 kt METAR LHSM 140145Z AUTO 31007KT CAVOK 20/19 Q1011
03:15
V
20 °C 10 km+ - 290° 290° 4 kt METAR LHSM 140115Z AUTO 29004KT CAVOK 20/19 Q1011
02:45
V
20 °C 10 km+ - 320° 320° 4 kt METAR LHSM 140045Z AUTO 32004KT 290V350 CAVOK 20/19 Q1010
02:15
V
20 °C 10 km+ - 310° 310° 4 kt METAR LHSM 140015Z AUTO 31004KT 280V010 9999 //////TCU 20/19 Q1011
01:45
V
20 °C 10 km+ - 310° 310° 6 kt METAR LHSM 132345Z AUTO 31006KT 9999 //////CB 20/19 Q1010
01:15
V
21 °C 10 km+ - 320° 320° 5 kt METAR LHSM 132315Z AUTO 32005KT 290V350 9999 //////CB 21/19 Q1010
00:45
V
21 °C 10 km+ - 290° 290° 4 kt METAR LHSM 132245Z AUTO 29004KT CAVOK 21/19 Q1011
00:15
V
21 °C 10 km+ - 300° 300° 6 kt METAR LHSM 132215Z AUTO 30006KT CAVOK 21/20 Q1011

July 13, 2024

Time Code Weather Temp. Visibility Ceiling Wind METAR/SPECI
23:45
V
22 °C 10 km+ - 280° 280° 6 kt METAR LHSM 132145Z AUTO 28006KT CAVOK 22/20 Q1011
23:15
V
22 °C 10 km+ - 290° 290° 5 kt METAR LHSM 132115Z AUTO 29005KT CAVOK 22/20 Q1010
22:45
V
23 °C 10 km+ - 290° 290° 4 kt METAR LHSM 132045Z AUTO 29004KT 250V320 CAVOK 23/21 Q1011
22:15
V
23 °C 10 km+ - 290° 290° 4 kt METAR LHSM 132015Z AUTO 29004KT 250V320 CAVOK 23/21 Q1010 RERA
21:45
V
24 °C 10 km+ - 290° 290° 7 kt METAR LHSM 131945Z AUTO 29007KT CAVOK 24/21 Q1010 RESHRA
21:15
M
24 °C 6 km - 270° 270° 5 kt METAR LHSM 131915Z AUTO 27005KT 6000 RA NSC 24/22 Q1010
20:45
V
24 °C 10 km+ - 310° 310° 4 kt METAR LHSM 131845Z AUTO 31004KT CAVOK 24/22 Q1010
20:15
V
25 °C 10 km+ - 360° 360° 4 kt METAR LHSM 131815Z AUTO 36004KT CAVOK 25/22 Q1010
19:45
V
25 °C 10 km+ - 350° 350° 3 kt METAR LHSM 131745Z AUTO 35003KT 300V030 CAVOK 25/22 Q1010
19:15
V
26 °C 10 km+ - 310° 310° 11 kt METAR LHSM 131715Z AUTO 31011KT 280V340 CAVOK 26/22 Q1010 RESHRA
18:45
V
26 °C 10 km+ 7,400 ft 230° 230° 8 kt METAR LHSM 131645Z AUTO 23008KT 170V290 9999 TSRA BKN074 //////CB 26/21 Q1010
18:15
V
28 °C 10 km+ - 360° 360° 6 kt METAR LHSM 131615Z AUTO 36006KT 9999 -RA VCTS //////CB 28/19 Q1010
17:45
V
28 °C 10 km+ - 360° 360° 8 kt METAR LHSM 131545Z AUTO 36008KT 9999 //////CB 28/19 Q1010
17:15
V
29 °C 10 km+ - 340° 340° 9 kt METAR LHSM 131515Z AUTO 34009KT 290V020 CAVOK 29/19 Q1010
16:45
V
31 °C 10 km+ - Var Var 3 kt METAR LHSM 131445Z AUTO VRB03KT CAVOK 31/18 Q1010
16:15
V
32 °C 10 km+ - Var Var 2 kt METAR LHSM 131415Z AUTO VRB02KT CAVOK 32/19 Q1010
15:45
V
32 °C 10 km+ - Var Var 3 kt METAR LHSM 131345Z AUTO VRB03KT CAVOK 32/19 Q1010 NOSIG
15:15
V
31 °C 10 km+ - Var Var 3 kt METAR LHSM 131315Z AUTO VRB03KT CAVOK 31/19 Q1010 NOSIG
14:45
V
31 °C 10 km+ - Var Var 3 kt METAR LHSM 131245Z AUTO VRB03KT CAVOK 31/19 Q1011 NOSIG
14:15
V
30 °C 10 km+ - Var Var 4 kt METAR LHSM 131215Z AUTO VRB04KT CAVOK 30/19 Q1011 NOSIG
13:45
V
30 °C 10 km+ - Var Var 4 kt METAR LHSM 131145Z AUTO VRB04KT CAVOK 30/19 Q1011 NOSIG
13:15
V
30 °C 10 km+ - 100° 100° 5 kt METAR LHSM 131115Z AUTO 10005KT 050V190 CAVOK 30/19 Q1011 NOSIG
12:45
V
29 °C 10 km+ - Var Var 4 kt METAR LHSM 131045Z AUTO VRB04KT CAVOK 29/19 Q1011 NOSIG
12:15
V
28 °C 10 km+ - Var Var 4 kt METAR LHSM 131015Z AUTO VRB04KT CAVOK 28/19 Q1011 NOSIG
11:45
V
29 °C 10 km+ - Var Var 5 kt METAR LHSM 130945Z AUTO VRB05KT CAVOK 29/19 Q1011 NOSIG
11:15
V
28 °C 10 km+ - 050° 050° 6 kt METAR LHSM 130915Z AUTO 05006KT 340V110 CAVOK 28/18 Q1011 NOSIG
10:45
V
27 °C 10 km+ - 030° 030° 7 kt METAR LHSM 130845Z AUTO 03007KT 300V080 CAVOK 27/18 Q1012 NOSIG
10:15
V
27 °C 10 km+ - 010° 010° 9 kt METAR LHSM 130815Z AUTO 01009KT 330V050 CAVOK 27/17 Q1011 NOSIG
09:45
V
26 °C 10 km+ - 010° 010° 11 kt METAR LHSM 130745Z AUTO 01011KT 330V060 CAVOK 26/18 Q1011 NOSIG
09:15
V
25 °C 10 km+ - 010° 010° 10 kt METAR LHSM 130715Z AUTO 01010KT 340V050 CAVOK 25/18 Q1011 NOSIG
08:45
V
25 °C 10 km+ - 010° 010° 10 kt METAR LHSM 130645Z AUTO 01010KT 340V040 CAVOK 25/18 Q1012 NOSIG
08:15
V
24 °C 10 km+ - 020° 020° 11 kt METAR LHSM 130615Z AUTO 02011KT 350V060 CAVOK 24/18 Q1011 NOSIG
07:45
V
23 °C 10 km+ - 020° 020° 11 kt METAR LHSM 130545Z AUTO 02011KT 340V070 CAVOK 23/18 Q1011 NOSIG
Report a change